createdAt,value
2018-07-02T00:00:12.224Z,92.80
2018-07-02T00:05:07.080Z,93.20
2018-07-02T00:07:34.381Z,93.20
2018-07-02T00:10:01.740Z,93.50
2018-07-02T00:12:29.004Z,93.50
2018-07-02T00:17:23.653Z,93.70
2018-07-02T00:19:50.956Z,93.80
2018-07-02T00:22:18.291Z,93.80
2018-07-02T00:24:45.604Z,93.80
2018-07-02T00:27:12.868Z,93.80
2018-07-02T00:29:40.179Z,93.90
2018-07-02T00:32:07.670Z,93.90
2018-07-02T00:34:35.100Z,94.10
2018-07-02T00:37:02.472Z,94.50
2018-07-02T00:41:57.074Z,94.20
2018-07-02T00:44:24.444Z,94.20
2018-07-02T00:46:51.724Z,94.10
2018-07-02T00:49:18.984Z,94.20
2018-07-02T00:51:46.271Z,94.40
2018-07-02T01:01:35.384Z,94.50
2018-07-02T01:04:02.703Z,94.90
2018-07-02T01:08:57.318Z,94.60
2018-07-02T01:11:24.568Z,94.80
2018-07-02T01:13:52.631Z,94.90
2018-07-02T01:16:19.916Z,95.10
2018-07-02T01:18:48.205Z,95.10
2018-07-02T01:21:15.478Z,95.30
2018-07-02T01:23:43.079Z,95.40
2018-07-02T01:28:37.763Z,95.60
2018-07-02T01:31:05.152Z,95.60
2018-07-02T01:33:32.400Z,95.60
2018-07-02T01:35:59.843Z,95.60
2018-07-02T01:38:27.124Z,95.80
2018-07-02T01:40:54.404Z,95.90
2018-07-02T01:43:21.644Z,95.70
2018-07-02T01:45:48.960Z,95.80
2018-07-02T01:48:16.243Z,95.90
2018-07-02T01:50:43.498Z,96.10
2018-07-02T01:53:10.712Z,96.50
2018-07-02T01:55:37.944Z,96.00
2018-07-02T01:58:05.199Z,96.10
2018-07-02T02:02:59.908Z,96.10
2018-07-02T02:05:27.193Z,96.20
2018-07-02T02:07:54.523Z,96.30
2018-07-02T02:10:21.823Z,96.40
2018-07-02T02:15:16.364Z,96.30
2018-07-02T02:22:38.131Z,96.70
2018-07-02T02:25:05.512Z,96.80
2018-07-02T02:27:32.776Z,96.90
2018-07-02T02:30:00.076Z,96.70
2018-07-02T02:32:27.347Z,96.90
2018-07-02T02:34:54.635Z,96.90
2018-07-02T02:37:21.896Z,97.00
2018-07-02T02:39:49.220Z,97.20
2018-07-02T02:42:16.467Z,97.30
2018-07-02T02:44:43.851Z,97.10
2018-07-02T02:49:38.592Z,97.20
2018-07-02T02:52:05.958Z,97.30
2018-07-02T02:54:33.213Z,97.30
2018-07-02T02:57:00.492Z,97.40
2018-07-02T03:01:55.029Z,97.40
2018-07-02T03:04:22.307Z,97.40
2018-07-02T03:06:49.608Z,97.40
2018-07-02T03:09:17.011Z,97.50
2018-07-02T03:16:38.829Z,97.70
2018-07-02T03:19:06.521Z,97.80
2018-07-02T03:21:33.788Z,97.90
2018-07-02T03:24:01.131Z,97.90
2018-07-02T03:26:28.388Z,97.90
2018-07-02T03:36:17.437Z,98.10
2018-07-02T03:38:44.703Z,98.00
2018-07-02T03:43:39.224Z,98.30
2018-07-02T03:46:06.612Z,98.00
2018-07-02T03:51:01.174Z,98.10
2018-07-02T03:53:28.467Z,98.20
2018-07-02T03:55:55.747Z,98.00
2018-07-02T03:58:23.074Z,98.20
2018-07-02T04:00:50.344Z,98.10
2018-07-02T04:03:17.624Z,98.20
2018-07-02T04:08:12.264Z,99.00
2018-07-02T04:10:39.547Z,98.30
2018-07-02T04:13:06.854Z,98.30
2018-07-02T04:15:34.087Z,98.40
2018-07-02T04:18:01.356Z,98.60
2018-07-02T04:20:28.619Z,98.90
2018-07-02T04:22:55.920Z,99.30
2018-07-02T04:25:23.176Z,98.50
2018-07-02T04:27:50.435Z,98.60
2018-07-02T04:32:44.912Z,99.10
2018-07-02T04:35:12.175Z,99.10
2018-07-02T04:37:39.428Z,99.30
2018-07-02T04:40:06.712Z,99.30
2018-07-02T04:42:33.981Z,99.30
2018-07-02T04:45:01.292Z,99.10
2018-07-02T04:47:30.640Z,98.40
2018-07-02T04:49:55.864Z,97.70
2018-07-02T04:52:23.139Z,97.30
2018-07-02T04:54:50.400Z,96.60
2018-07-02T04:57:17.677Z,96.50
2018-07-02T04:59:45.007Z,96.00
2018-07-02T05:07:06.737Z,95.30
2018-07-02T05:09:34.012Z,95.10
2018-07-02T05:12:01.281Z,94.80
2018-07-02T05:14:28.539Z,94.40
2018-07-02T05:16:55.881Z,94.00
2018-07-02T05:21:50.359Z,94.30
2018-07-02T05:24:17.633Z,94.20
2018-07-02T05:26:44.923Z,94.20
2018-07-02T05:29:12.173Z,94.50
2018-07-02T05:31:39.414Z,94.10
2018-07-02T05:34:06.664Z,93.70
2018-07-02T05:36:33.905Z,93.90
2018-07-02T05:39:01.157Z,93.80
2018-07-02T05:41:28.487Z,93.70
2018-07-02T05:43:55.768Z,93.60
2018-07-02T05:48:50.343Z,94.00
2018-07-02T05:51:17.681Z,93.90
2018-07-02T05:53:44.947Z,93.70
2018-07-02T05:56:12.195Z,93.00
2018-07-02T05:58:39.551Z,93.10
2018-07-02T06:01:06.869Z,92.90
2018-07-02T06:03:34.115Z,92.60
2018-07-02T06:06:01.360Z,92.50
2018-07-02T06:08:28.700Z,92.30
2018-07-02T06:10:55.968Z,92.40
2018-07-02T06:13:23.240Z,92.70
2018-07-02T06:15:50.484Z,92.90
2018-07-02T06:18:17.742Z,93.10
2018-07-02T06:20:45.260Z,93.30
2018-07-02T06:23:12.499Z,92.90
2018-07-02T06:25:39.732Z,92.50
2018-07-02T06:28:06.991Z,93.00
2018-07-02T06:30:34.380Z,92.50
2018-07-02T06:33:01.581Z,92.20
2018-07-02T06:35:28.835Z,91.60
2018-07-02T06:37:56.187Z,91.50
2018-07-02T06:40:23.470Z,91.90
2018-07-02T06:42:50.754Z,92.10
2018-07-02T06:47:45.271Z,91.50
2018-07-02T06:50:12.568Z,91.60
2018-07-02T06:52:39.943Z,91.70
2018-07-02T06:55:07.204Z,91.80
2018-07-02T06:57:34.484Z,91.90
2018-07-02T07:00:01.817Z,91.60
2018-07-02T07:07:23.840Z,91.40
2018-07-02T07:09:51.117Z,91.30
2018-07-02T07:12:18.404Z,91.20
2018-07-02T07:14:45.663Z,91.40
2018-07-02T07:17:12.957Z,91.60
2018-07-02T07:19:40.232Z,91.50
2018-07-02T07:22:07.484Z,91.70
2018-07-02T07:24:34.733Z,91.60
2018-07-02T07:27:01.984Z,91.70
2018-07-02T07:29:29.276Z,91.60
2018-07-02T07:31:56.553Z,91.50
2018-07-02T07:34:23.822Z,91.00
2018-07-02T07:36:51.087Z,91.70
2018-07-02T07:39:18.345Z,91.60
2018-07-02T07:41:45.608Z,91.30
2018-07-02T07:44:12.875Z,91.10
2018-07-02T07:46:40.151Z,90.90
2018-07-02T07:49:07.392Z,91.00
2018-07-02T07:51:34.647Z,90.20
2018-07-02T07:54:01.909Z,90.10
2018-07-02T07:56:29.210Z,90.30
2018-07-02T07:58:56.452Z,90.40
2018-07-02T08:01:23.876Z,90.50
2018-07-02T08:03:51.149Z,90.30
2018-07-02T08:06:18.528Z,90.20
2018-07-02T08:08:45.764Z,90.00
2018-07-02T08:13:40.283Z,89.40
2018-07-02T08:16:07.548Z,90.00
2018-07-02T08:18:34.813Z,88.50
2018-07-02T08:21:02.157Z,88.80
2018-07-02T08:23:29.460Z,88.50
2018-07-02T08:25:56.738Z,87.90
2018-07-02T08:28:23.951Z,88.80
2018-07-02T08:30:51.192Z,87.50
2018-07-02T08:33:18.489Z,87.60
2018-07-02T08:35:45.780Z,88.20
2018-07-02T08:38:13.061Z,88.40
2018-07-02T08:40:40.308Z,87.80
2018-07-02T08:43:07.636Z,88.30
2018-07-02T08:45:34.840Z,87.50
2018-07-02T08:48:02.154Z,86.80
2018-07-02T08:50:29.436Z,87.10
2018-07-02T08:52:56.728Z,87.80
2018-07-02T08:55:23.968Z,89.20
2018-07-02T08:57:51.217Z,88.40
2018-07-02T09:00:18.420Z,87.70
2018-07-02T09:02:45.664Z,87.50
2018-07-02T09:05:12.899Z,87.80
2018-07-02T09:07:40.162Z,88.40
2018-07-02T09:10:07.451Z,87.30
2018-07-02T09:12:34.785Z,87.80
2018-07-02T09:15:02.068Z,87.40
2018-07-02T09:17:29.319Z,87.20
2018-07-02T09:19:56.589Z,86.40
2018-07-02T09:22:23.868Z,88.20
2018-07-02T09:24:51.132Z,87.70
2018-07-02T09:27:18.404Z,86.50
2018-07-02T09:29:45.695Z,87.30
2018-07-02T09:32:12.946Z,87.00
2018-07-02T09:34:40.208Z,87.60
2018-07-02T09:37:07.477Z,87.50
2018-07-02T09:39:34.720Z,86.50
2018-07-02T09:42:01.965Z,87.00
2018-07-02T09:44:29.321Z,87.80
2018-07-02T09:46:56.572Z,86.80
2018-07-02T09:49:24.461Z,86.90
2018-07-02T09:54:18.971Z,86.20
2018-07-02T09:56:46.216Z,85.60
2018-07-02T09:59:13.472Z,87.00
2018-07-02T10:01:40.740Z,86.00
2018-07-02T10:04:08.372Z,86.70
2018-07-02T10:06:35.796Z,85.80
2018-07-02T10:09:05.172Z,85.40
2018-07-02T10:11:32.420Z,85.70
2018-07-02T10:13:59.639Z,85.40
2018-07-02T10:16:26.908Z,85.40
2018-07-02T10:18:54.235Z,85.80
2018-07-02T10:21:21.519Z,85.40
2018-07-02T10:23:48.782Z,84.30
2018-07-02T10:26:16.160Z,84.40
2018-07-02T10:28:43.399Z,85.50
2018-07-02T10:31:10.694Z,86.20
2018-07-02T10:33:37.858Z,84.40
2018-07-02T10:36:05.123Z,83.80
2018-07-02T10:38:32.359Z,83.60
2018-07-02T10:40:59.593Z,82.90
2018-07-02T10:43:26.932Z,81.90
2018-07-02T10:45:54.178Z,82.90
2018-07-02T10:48:21.438Z,83.60
2018-07-02T10:50:48.672Z,83.10
2018-07-02T10:53:15.899Z,83.40
2018-07-02T10:55:43.255Z,84.10
2018-07-02T10:58:10.439Z,83.70
2018-07-02T11:00:37.751Z,84.60
2018-07-02T11:03:05.013Z,83.30
2018-07-02T11:05:32.259Z,83.10
2018-07-02T11:07:59.548Z,82.80
2018-07-02T11:10:26.835Z,83.80
2018-07-02T11:12:54.088Z,83.50
2018-07-02T11:15:21.339Z,81.80
2018-07-02T11:17:48.632Z,82.60
2018-07-02T11:20:15.960Z,83.60
2018-07-02T11:22:43.216Z,82.90
2018-07-02T11:25:10.670Z,82.40
2018-07-02T11:27:37.924Z,81.70
2018-07-02T11:30:05.516Z,81.70
2018-07-02T11:32:32.775Z,83.40
2018-07-02T11:35:00.042Z,82.80
2018-07-02T11:39:54.589Z,81.80
2018-07-02T11:42:21.867Z,82.90
2018-07-02T11:44:49.136Z,83.70
2018-07-02T11:47:16.420Z,81.60
2018-07-02T11:49:43.719Z,82.10
2018-07-02T11:52:10.976Z,81.60
2018-07-02T11:54:38.219Z,81.80
2018-07-02T11:57:05.504Z,81.80
2018-07-02T11:59:32.777Z,81.10
2018-07-02T12:02:00.073Z,79.70
2018-07-02T12:04:27.312Z,79.70
2018-07-02T12:06:54.703Z,79.60
2018-07-02T12:11:49.229Z,81.00
2018-07-02T12:16:43.831Z,77.50
2018-07-02T12:19:11.118Z,80.90
2018-07-02T12:21:38.372Z,79.20
2018-07-02T12:24:05.689Z,78.70
2018-07-02T12:26:33.240Z,78.70
2018-07-02T12:33:55.029Z,83.70
2018-07-02T12:38:49.576Z,79.70
2018-07-02T12:41:16.871Z,78.80
2018-07-02T12:43:44.119Z,78.10
2018-07-02T12:46:11.396Z,79.30
2018-07-02T12:48:38.680Z,78.00
2018-07-02T12:51:05.964Z,77.70
2018-07-02T12:53:33.272Z,79.50
2018-07-02T12:56:00.595Z,81.10
2018-07-02T12:58:27.876Z,77.90
2018-07-02T13:00:55.164Z,77.40
2018-07-02T13:05:49.880Z,78.00
2018-07-02T13:08:17.159Z,77.60
2018-07-02T13:13:11.675Z,76.70
2018-07-02T13:15:38.936Z,77.20
2018-07-02T13:18:06.268Z,77.50
2018-07-02T13:20:33.560Z,76.70
2018-07-02T13:23:00.784Z,75.00
2018-07-02T13:25:28.093Z,76.60
2018-07-02T13:27:55.379Z,74.90
2018-07-02T13:30:22.678Z,74.80
2018-07-02T13:32:49.929Z,74.30
2018-07-02T13:35:17.195Z,74.60
2018-07-02T13:37:44.470Z,74.30
2018-07-02T13:40:11.722Z,74.20
2018-07-02T13:42:38.976Z,73.40
2018-07-02T13:47:33.544Z,73.60
2018-07-02T13:50:00.785Z,73.20
2018-07-02T13:52:28.039Z,72.80
2018-07-02T13:54:55.319Z,71.60
2018-07-02T13:57:22.546Z,72.30
2018-07-02T13:59:49.776Z,72.50
2018-07-02T14:02:17.075Z,73.20
2018-07-02T14:04:44.286Z,72.70
2018-07-02T14:07:11.540Z,72.70
2018-07-02T14:09:38.767Z,72.10
2018-07-02T14:12:06.027Z,71.90
2018-07-02T14:14:33.260Z,71.10
2018-07-02T14:17:00.536Z,68.60
2018-07-02T14:19:27.788Z,68.80
2018-07-02T14:21:55.034Z,69.50
2018-07-02T14:24:22.252Z,69.10
2018-07-02T14:26:49.507Z,69.70
2018-07-02T14:29:16.743Z,70.00
2018-07-02T14:31:44.005Z,69.10
2018-07-02T14:34:11.231Z,68.40
2018-07-02T14:36:38.479Z,68.90
2018-07-02T14:39:08.501Z,68.60
2018-07-02T14:41:35.697Z,68.90
2018-07-02T14:44:03.152Z,69.00
2018-07-02T14:46:30.376Z,68.70
2018-07-02T14:48:57.666Z,67.20
2018-07-02T14:51:24.904Z,67.30
2018-07-02T14:53:52.161Z,67.40
2018-07-02T14:56:19.508Z,67.80
2018-07-02T14:58:46.752Z,67.40
2018-07-02T15:03:41.236Z,68.40
2018-07-02T15:06:08.460Z,67.40
2018-07-02T15:11:03.000Z,68.20
2018-07-02T15:13:30.248Z,67.30
2018-07-02T15:15:57.493Z,68.40
2018-07-02T15:18:24.751Z,67.00
2018-07-02T15:20:52.021Z,68.30
2018-07-02T15:23:19.280Z,68.80
2018-07-02T15:25:46.513Z,66.10
2018-07-02T15:28:13.765Z,66.20
2018-07-02T15:30:41.035Z,67.40
2018-07-02T15:33:08.420Z,67.80
2018-07-02T15:35:35.664Z,67.30
2018-07-02T15:38:02.888Z,66.90
2018-07-02T15:40:30.121Z,66.20
2018-07-02T15:42:58.414Z,68.20
2018-07-02T15:45:25.680Z,68.20
2018-07-02T15:47:52.936Z,66.60
2018-07-02T15:50:20.184Z,65.90
2018-07-02T15:52:47.424Z,65.20
2018-07-02T15:57:41.880Z,66.70
2018-07-02T16:00:09.124Z,66.00
2018-07-02T16:02:36.392Z,67.70
2018-07-02T16:05:04.293Z,66.30
2018-07-02T16:07:31.417Z,65.00
2018-07-02T16:09:58.700Z,65.20
2018-07-02T16:12:25.995Z,65.20
2018-07-02T16:14:53.248Z,65.40
2018-07-02T16:17:20.496Z,66.00
2018-07-02T16:19:47.776Z,65.80
2018-07-02T16:22:15.048Z,65.80
2018-07-02T16:24:42.280Z,64.80
2018-07-02T16:27:09.500Z,64.80
2018-07-02T16:29:36.824Z,65.00
2018-07-02T16:32:04.103Z,65.60
2018-07-02T16:34:31.368Z,65.30
2018-07-02T16:36:58.616Z,63.80
2018-07-02T16:39:25.888Z,63.90
2018-07-02T16:41:53.125Z,65.30
2018-07-02T16:44:20.404Z,64.90
2018-07-02T16:46:47.671Z,64.70
2018-07-02T16:49:14.900Z,64.80
2018-07-02T16:51:42.213Z,65.60
2018-07-02T16:54:09.464Z,64.40
2018-07-02T16:56:36.695Z,65.20
2018-07-02T16:59:04.608Z,65.50
2018-07-02T17:03:59.154Z,64.20
2018-07-02T17:06:26.417Z,65.00
2018-07-02T17:08:53.652Z,65.50
2018-07-02T17:11:20.882Z,64.30
2018-07-02T17:13:48.148Z,63.40
2018-07-02T17:16:15.385Z,63.50
2018-07-02T17:18:42.641Z,63.60
2018-07-02T17:21:09.924Z,64.20
2018-07-02T17:23:37.204Z,64.00
2018-07-02T17:26:04.504Z,64.70
2018-07-02T17:28:31.933Z,64.30
2018-07-02T17:30:59.115Z,63.50
2018-07-02T17:33:26.553Z,63.40
2018-07-02T17:35:53.800Z,64.00
2018-07-02T17:38:21.158Z,65.40
2018-07-02T17:40:48.401Z,65.00
2018-07-02T17:43:15.632Z,65.40
2018-07-02T17:45:43.908Z,65.20
2018-07-02T17:50:39.397Z,65.80
2018-07-02T17:53:06.643Z,66.90
2018-07-02T17:55:33.876Z,66.80
2018-07-02T17:58:01.197Z,66.70
2018-07-02T18:00:28.433Z,65.70
2018-07-02T18:02:55.688Z,65.70
2018-07-02T18:05:22.996Z,66.10
2018-07-02T18:07:50.264Z,66.80
2018-07-02T18:10:17.527Z,66.50
2018-07-02T18:12:44.901Z,68.40
2018-07-02T18:15:12.193Z,68.00
2018-07-02T18:17:39.560Z,66.90
2018-07-02T18:22:34.045Z,67.70
2018-07-02T18:25:01.284Z,69.10
2018-07-02T18:27:28.521Z,72.60
2018-07-02T18:29:55.752Z,71.60
2018-07-02T18:32:23.053Z,72.00
2018-07-02T18:34:50.305Z,76.30
2018-07-02T18:37:17.591Z,76.70
2018-07-02T18:39:44.913Z,78.80
2018-07-02T18:42:12.139Z,78.50
2018-07-02T18:44:40.492Z,80.20
2018-07-02T18:52:02.280Z,85.20
2018-07-02T18:54:29.537Z,86.00
2018-07-02T18:56:56.927Z,87.60
2018-07-02T18:59:24.155Z,87.60
2018-07-02T19:01:51.428Z,87.40
2018-07-02T19:04:18.671Z,88.00
2018-07-02T19:06:45.952Z,89.30
2018-07-02T19:09:13.266Z,87.20
2018-07-02T19:11:40.552Z,87.10
2018-07-02T19:14:08.024Z,90.40
2018-07-02T19:16:35.644Z,90.70
2018-07-02T19:19:03.009Z,90.00
2018-07-02T19:21:30.564Z,88.60
2018-07-02T19:23:57.890Z,89.90
2018-07-02T19:26:25.224Z,89.60
2018-07-02T19:31:19.848Z,90.50
2018-07-02T19:33:47.327Z,89.00
2018-07-02T19:36:14.626Z,89.00
2018-07-02T19:38:41.928Z,89.00
2018-07-02T19:41:09.410Z,88.70
2018-07-02T19:43:36.864Z,89.30
2018-07-02T19:46:04.301Z,90.10
2018-07-02T19:48:31.691Z,90.50
2018-07-02T19:50:59.069Z,90.90
2018-07-02T19:53:26.345Z,90.80
2018-07-02T19:55:53.644Z,91.00
2018-07-02T19:58:21.210Z,91.30
2018-07-02T20:00:48.629Z,91.00
2018-07-02T20:03:15.878Z,91.00
2018-07-02T20:05:43.164Z,90.90
2018-07-02T20:08:10.404Z,91.00
2018-07-02T20:10:37.665Z,91.40
2018-07-02T20:15:32.158Z,91.50
2018-07-02T20:17:59.542Z,91.40
2018-07-02T20:20:26.796Z,91.70
2018-07-02T20:22:54.181Z,91.90
2018-07-02T20:27:48.791Z,92.10
2018-07-02T20:30:16.029Z,91.90
2018-07-02T20:32:43.299Z,92.00
2018-07-02T20:35:10.581Z,92.00
2018-07-02T20:37:37.842Z,92.10
2018-07-02T20:40:05.125Z,92.10
2018-07-02T20:42:32.399Z,92.20
2018-07-02T20:45:00.013Z,92.30
2018-07-02T20:47:27.304Z,92.20
2018-07-02T20:49:54.540Z,92.20
2018-07-02T20:52:22.042Z,92.40
2018-07-02T20:54:49.277Z,92.50
2018-07-02T20:57:16.536Z,92.90
2018-07-02T20:59:43.849Z,93.20
2018-07-02T21:02:11.120Z,93.20
2018-07-02T21:04:38.472Z,93.40
2018-07-02T21:07:05.812Z,93.70
2018-07-02T21:09:33.160Z,93.80
2018-07-02T21:12:00.511Z,93.90
2018-07-02T21:14:27.877Z,93.40
2018-07-02T21:19:23.363Z,93.20
2018-07-02T21:21:50.746Z,93.00
2018-07-02T21:24:18.126Z,93.20
2018-07-02T21:26:45.420Z,93.20
2018-07-02T21:29:12.744Z,93.00
2018-07-02T21:31:40.060Z,92.80
2018-07-02T21:34:07.487Z,92.90
2018-07-02T21:36:34.824Z,93.10
2018-07-02T21:39:02.128Z,93.30
2018-07-02T21:41:29.389Z,93.40
2018-07-02T21:43:56.675Z,93.40
2018-07-02T21:46:23.963Z,93.60
2018-07-02T21:51:18.478Z,94.00
2018-07-02T21:53:45.783Z,93.90
2018-07-02T21:56:13.071Z,94.50
2018-07-02T21:58:40.340Z,94.90
2018-07-02T22:01:07.639Z,95.10
2018-07-02T22:03:34.893Z,95.50
2018-07-02T22:06:02.195Z,95.20
2018-07-02T22:08:29.477Z,95.20
2018-07-02T22:10:56.770Z,95.10
2018-07-02T22:13:24.067Z,95.00
2018-07-02T22:15:51.296Z,95.40
2018-07-02T22:18:18.525Z,95.10
2018-07-02T22:23:13.049Z,95.10
2018-07-02T22:28:07.624Z,95.00
2018-07-02T22:30:34.923Z,94.90
2018-07-02T22:33:02.180Z,95.00
2018-07-02T22:35:29.452Z,94.90
2018-07-02T22:37:56.855Z,94.90
2018-07-02T22:40:24.284Z,94.90
2018-07-02T22:42:51.726Z,95.00
2018-07-02T22:45:19.011Z,95.10
2018-07-02T22:47:46.253Z,95.10
2018-07-02T22:50:13.572Z,94.90
2018-07-02T22:57:35.551Z,95.10
2018-07-02T23:00:02.856Z,94.90
2018-07-02T23:02:30.179Z,94.60
2018-07-02T23:04:57.464Z,94.80
2018-07-02T23:07:25.029Z,95.20
2018-07-02T23:09:52.313Z,94.90
2018-07-02T23:12:19.687Z,95.10
2018-07-02T23:17:14.339Z,95.30
2018-07-02T23:19:41.704Z,95.40
2018-07-02T23:22:08.976Z,95.50
2018-07-02T23:24:36.275Z,95.40
2018-07-02T23:27:03.614Z,95.10
2018-07-02T23:29:30.893Z,95.40
2018-07-02T23:31:58.272Z,95.60
2018-07-02T23:34:25.620Z,95.50
2018-07-02T23:36:52.887Z,95.40
2018-07-02T23:39:20.245Z,95.20
2018-07-02T23:41:47.512Z,95.30
2018-07-02T23:44:14.804Z,95.60
2018-07-02T23:46:42.136Z,95.70
2018-07-02T23:49:09.408Z,95.50
2018-07-02T23:51:36.923Z,95.40
2018-07-02T23:54:04.279Z,95.60
2018-07-02T23:56:31.573Z,95.80
2018-07-02T23:58:58.892Z,95.90
